sensor_id;sensor_type;location;lat;lon;timestamp;temperature;humidity
36458;DHT22;22480;50.546;12.292;2022-08-21T00:01:47;15.80;99.90
36458;DHT22;22480;50.546;12.292;2022-08-21T00:04:13;15.80;99.90
36458;DHT22;22480;50.546;12.292;2022-08-21T00:06:39;15.80;99.90
36458;DHT22;22480;50.546;12.292;2022-08-21T00:09:07;15.80;99.90
36458;DHT22;22480;50.546;12.292;2022-08-21T00:11:34;15.80;99.90
36458;DHT22;22480;50.546;12.292;2022-08-21T00:14:01;15.80;99.90
36458;DHT22;22480;50.546;12.292;2022-08-21T00:16:26;15.80;99.90
36458;DHT22;22480;50.546;12.292;2022-08-21T00:18:54;15.80;99.90
36458;DHT22;22480;50.546;12.292;2022-08-21T00:21:20;15.90;99.90
36458;DHT22;22480;50.546;12.292;2022-08-21T00:23:45;15.90;99.90
36458;DHT22;22480;50.546;12.292;2022-08-21T00:26:11;15.90;99.90
36458;DHT22;22480;50.546;12.292;2022-08-21T00:28:37;15.80;99.90
36458;DHT22;22480;50.546;12.292;2022-08-21T00:31:02;15.90;99.90
36458;DHT22;22480;50.546;12.292;2022-08-21T00:33:31;15.90;99.90
36458;DHT22;22480;50.546;12.292;2022-08-21T00:35:57;15.90;99.90
36458;DHT22;22480;50.546;12.292;2022-08-21T00:38:22;15.90;99.90
36458;DHT22;22480;50.546;12.292;2022-08-21T00:40:56;15.90;99.90
36458;DHT22;22480;50.546;12.292;2022-08-21T00:43:34;15.90;99.90
36458;DHT22;22480;50.546;12.292;2022-08-21T00:46:01;15.90;99.90
36458;DHT22;22480;50.546;12.292;2022-08-21T00:48:27;15.90;99.90
36458;DHT22;22480;50.546;12.292;2022-08-21T00:51:08;15.90;99.90
36458;DHT22;22480;50.546;12.292;2022-08-21T00:53:38;15.90;99.90
36458;DHT22;22480;50.546;12.292;2022-08-21T00:56:06;15.90;99.90
36458;DHT22;22480;50.546;12.292;2022-08-21T00:58:33;15.90;99.90
36458;DHT22;22480;50.546;12.292;2022-08-21T01:01:03;15.90;99.90
36458;DHT22;22480;50.546;12.292;2022-08-21T01:03:30;16.00;99.90
36458;DHT22;22480;50.546;12.292;2022-08-21T01:05:55;16.00;99.90
36458;DHT22;22480;50.546;12.292;2022-08-21T01:08:21;16.10;99.90
36458;DHT22;22480;50.546;12.292;2022-08-21T01:10:48;16.10;99.90
36458;DHT22;22480;50.546;12.292;2022-08-21T01:13:17;16.20;99.90
36458;DHT22;22480;50.546;12.292;2022-08-21T01:15:48;16.20;99.90
36458;DHT22;22480;50.546;12.292;2022-08-21T01:18:16;16.20;99.90
36458;DHT22;22480;50.546;12.292;2022-08-21T01:20:55;16.20;99.90
36458;DHT22;22480;50.546;12.292;2022-08-21T01:23:22;16.20;99.90
36458;DHT22;22480;50.546;12.292;2022-08-21T01:25:47;16.20;99.90
36458;DHT22;22480;50.546;12.292;2022-08-21T01:28:14;16.10;99.90
36458;DHT22;22480;50.546;12.292;2022-08-21T01:30:42;16.10;99.90
36458;DHT22;22480;50.546;12.292;2022-08-21T01:33:09;16.10;99.90
36458;DHT22;22480;50.546;12.292;2022-08-21T01:35:34;16.10;99.90
36458;DHT22;22480;50.546;12.292;2022-08-21T01:38:00;16.20;99.90
36458;DHT22;22480;50.546;12.292;2022-08-21T01:40:26;16.20;99.90
36458;DHT22;22480;50.546;12.292;2022-08-21T01:42:52;16.20;99.90
36458;DHT22;22480;50.546;12.292;2022-08-21T01:45:19;16.20;99.90
36458;DHT22;22480;50.546;12.292;2022-08-21T01:47:45;16.30;99.90
36458;DHT22;22480;50.546;12.292;2022-08-21T01:50:15;16.30;99.90
36458;DHT22;22480;50.546;12.292;2022-08-21T01:52:41;16.20;99.90
36458;DHT22;22480;50.546;12.292;2022-08-21T01:55:08;16.30;99.90
36458;DHT22;22480;50.546;12.292;2022-08-21T01:57:34;16.40;99.90
36458;DHT22;22480;50.546;12.292;2022-08-21T01:59:59;16.30;99.90
36458;DHT22;22480;50.546;12.292;2022-08-21T02:02:25;16.40;99.90
36458;DHT22;22480;50.546;12.292;2022-08-21T02:04:51;16.40;99.90
36458;DHT22;22480;50.546;12.292;2022-08-21T02:07:16;16.40;99.90
36458;DHT22;22480;50.546;12.292;2022-08-21T02:09:42;16.50;99.90
36458;DHT22;22480;50.546;12.292;2022-08-21T02:12:10;16.50;99.90
36458;DHT22;22480;50.546;12.292;2022-08-21T02:14:36;16.50;99.90
36458;DHT22;22480;50.546;12.292;2022-08-21T02:17:02;16.50;99.90
36458;DHT22;22480;50.546;12.292;2022-08-21T02:19:27;16.50;99.90
36458;DHT22;22480;50.546;12.292;2022-08-21T02:21:53;16.60;99.90
36458;DHT22;22480;50.546;12.292;2022-08-21T02:24:21;16.50;99.90
36458;DHT22;22480;50.546;12.292;2022-08-21T02:26:47;16.60;99.90
36458;DHT22;22480;50.546;12.292;2022-08-21T02:29:12;16.60;99.90
36458;DHT22;22480;50.546;12.292;2022-08-21T02:31:41;16.60;99.90
36458;DHT22;22480;50.546;12.292;2022-08-21T02:34:09;16.60;99.90
36458;DHT22;22480;50.546;12.292;2022-08-21T02:36:34;16.50;99.90
36458;DHT22;22480;50.546;12.292;2022-08-21T02:39:00;16.50;99.90
36458;DHT22;22480;50.546;12.292;2022-08-21T02:41:26;16.60;99.90
36458;DHT22;22480;50.546;12.292;2022-08-21T02:43:54;16.60;99.90
36458;DHT22;22480;50.546;12.292;2022-08-21T02:46:24;16.60;99.90
36458;DHT22;22480;50.546;12.292;2022-08-21T02:48:54;16.60;99.90
36458;DHT22;22480;50.546;12.292;2022-08-21T02:51:20;16.50;99.90
36458;DHT22;22480;50.546;12.292;2022-08-21T02:53:49;16.50;99.90
36458;DHT22;22480;50.546;12.292;2022-08-21T02:56:17;16.50;99.90
36458;DHT22;22480;50.546;12.292;2022-08-21T02:58:47;16.50;99.90
36458;DHT22;22480;50.546;12.292;2022-08-21T03:01:13;16.50;99.90
36458;DHT22;22480;50.546;12.292;2022-08-21T03:03:44;16.50;99.90
36458;DHT22;22480;50.546;12.292;2022-08-21T03:06:13;16.60;99.90
36458;DHT22;22480;50.546;12.292;2022-08-21T03:08:42;16.60;99.90
36458;DHT22;22480;50.546;12.292;2022-08-21T03:11:12;16.60;99.90
36458;DHT22;22480;50.546;12.292;2022-08-21T03:13:42;16.60;99.90
36458;DHT22;22480;50.546;12.292;2022-08-21T03:16:12;16.60;99.90
36458;DHT22;22480;50.546;12.292;2022-08-21T03:18:38;16.60;99.90
36458;DHT22;22480;50.546;12.292;2022-08-21T03:21:08;16.60;99.90
36458;DHT22;22480;50.546;12.292;2022-08-21T03:23:34;16.50;99.90
36458;DHT22;22480;50.546;12.292;2022-08-21T03:26:02;16.60;99.90
36458;DHT22;22480;50.546;12.292;2022-08-21T03:28:28;16.60;99.90
36458;DHT22;22480;50.546;12.292;2022-08-21T03:30:54;16.60;99.90
36458;DHT22;22480;50.546;12.292;2022-08-21T03:33:22;16.60;99.90
36458;DHT22;22480;50.546;12.292;2022-08-21T03:35:58;16.60;99.90
36458;DHT22;22480;50.546;12.292;2022-08-21T03:38:24;16.60;99.90
36458;DHT22;22480;50.546;12.292;2022-08-21T03:40:49;16.60;99.90
36458;DHT22;22480;50.546;12.292;2022-08-21T03:43:15;16.60;99.90
36458;DHT22;22480;50.546;12.292;2022-08-21T03:45:41;16.60;99.90
36458;DHT22;22480;50.546;12.292;2022-08-21T03:48:07;16.50;99.90
36458;DHT22;22480;50.546;12.292;2022-08-21T03:50:37;16.50;99.90
36458;DHT22;22480;50.546;12.292;2022-08-21T03:53:04;16.40;99.90
36458;DHT22;22480;50.546;12.292;2022-08-21T03:55:30;16.40;99.90
36458;DHT22;22480;50.546;12.292;2022-08-21T03:57:55;16.40;99.90
36458;DHT22;22480;50.546;12.292;2022-08-21T04:00:21;16.30;99.90
36458;DHT22;22480;50.546;12.292;2022-08-21T04:02:47;16.30;99.90
36458;DHT22;22480;50.546;12.292;2022-08-21T04:05:15;16.20;99.90
36458;DHT22;22480;50.546;12.292;2022-08-21T04:08:11;16.20;99.90
36458;DHT22;22480;50.546;12.292;2022-08-21T04:10:38;16.30;99.90
36458;DHT22;22480;50.546;12.292;2022-08-21T04:13:07;16.20;99.90
36458;DHT22;22480;50.546;12.292;2022-08-21T04:15:33;16.20;99.90
36458;DHT22;22480;50.546;12.292;2022-08-21T04:17:58;16.20;99.90
36458;DHT22;22480;50.546;12.292;2022-08-21T04:20:25;16.20;99.90
36458;DHT22;22480;50.546;12.292;2022-08-21T04:22:52;16.20;99.90
36458;DHT22;22480;50.546;12.292;2022-08-21T04:25:21;16.20;99.90
36458;DHT22;22480;50.546;12.292;2022-08-21T04:27:46;16.10;99.90
36458;DHT22;22480;50.546;12.292;2022-08-21T04:30:13;16.10;99.90
36458;DHT22;22480;50.546;12.292;2022-08-21T04:32:44;16.10;99.90
36458;DHT22;22480;50.546;12.292;2022-08-21T04:35:11;16.10;99.90
36458;DHT22;22480;50.546;12.292;2022-08-21T04:37:37;16.10;99.90
36458;DHT22;22480;50.546;12.292;2022-08-21T04:40:04;16.00;99.90
36458;DHT22;22480;50.546;12.292;2022-08-21T04:42:30;16.00;99.90
36458;DHT22;22480;50.546;12.292;2022-08-21T04:44:56;16.00;99.90
36458;DHT22;22480;50.546;12.292;2022-08-21T04:47:23;16.00;99.90
36458;DHT22;22480;50.546;12.292;2022-08-21T04:49:49;15.90;99.90
36458;DHT22;22480;50.546;12.292;2022-08-21T04:52:19;15.90;99.90
36458;DHT22;22480;50.546;12.292;2022-08-21T04:54:46;15.90;99.90
36458;DHT22;22480;50.546;12.292;2022-08-21T04:57:15;15.90;99.90
36458;DHT22;22480;50.546;12.292;2022-08-21T04:59:47;16.00;99.90
36458;DHT22;22480;50.546;12.292;2022-08-21T05:02:15;16.00;99.90
36458;DHT22;22480;50.546;12.292;2022-08-21T05:04:48;16.10;99.90
36458;DHT22;22480;50.546;12.292;2022-08-21T05:07:18;16.20;99.90
36458;DHT22;22480;50.546;12.292;2022-08-21T05:09:44;16.20;99.90
36458;DHT22;22480;50.546;12.292;2022-08-21T05:12:10;16.30;99.90
36458;DHT22;22480;50.546;12.292;2022-08-21T05:14:36;16.40;99.90
36458;DHT22;22480;50.546;12.292;2022-08-21T05:17:02;16.40;99.90
36458;DHT22;22480;50.546;12.292;2022-08-21T05:19:28;16.50;99.90
36458;DHT22;22480;50.546;12.292;2022-08-21T05:21:54;16.60;99.90
36458;DHT22;22480;50.546;12.292;2022-08-21T05:24:20;16.70;99.90
36458;DHT22;22480;50.546;12.292;2022-08-21T05:26:46;16.70;99.90
36458;DHT22;22480;50.546;12.292;2022-08-21T05:29:12;16.70;99.90
36458;DHT22;22480;50.546;12.292;2022-08-21T05:31:42;16.70;99.90
36458;DHT22;22480;50.546;12.292;2022-08-21T05:34:07;16.80;99.90
36458;DHT22;22480;50.546;12.292;2022-08-21T05:36:33;16.90;99.90
36458;DHT22;22480;50.546;12.292;2022-08-21T05:38:59;16.90;99.90
36458;DHT22;22480;50.546;12.292;2022-08-21T05:41:28;17.10;99.90
36458;DHT22;22480;50.546;12.292;2022-08-21T05:43:54;17.20;99.90
36458;DHT22;22480;50.546;12.292;2022-08-21T05:46:20;17.20;99.90
36458;DHT22;22480;50.546;12.292;2022-08-21T05:48:45;17.30;99.90
36458;DHT22;22480;50.546;12.292;2022-08-21T05:51:13;17.40;99.90
36458;DHT22;22480;50.546;12.292;2022-08-21T05:53:39;17.50;99.90
36458;DHT22;22480;50.546;12.292;2022-08-21T05:56:07;17.60;99.90
36458;DHT22;22480;50.546;12.292;2022-08-21T05:58:35;17.70;99.90
36458;DHT22;22480;50.546;12.292;2022-08-21T06:01:02;17.90;99.90
36458;DHT22;22480;50.546;12.292;2022-08-21T06:03:31;18.00;99.90
36458;DHT22;22480;50.546;12.292;2022-08-21T06:05:57;18.10;99.90
36458;DHT22;22480;50.546;12.292;2022-08-21T06:08:26;18.20;99.90
36458;DHT22;22480;50.546;12.292;2022-08-21T06:10:53;18.20;99.90
36458;DHT22;22480;50.546;12.292;2022-08-21T06:13:20;18.10;99.90
36458;DHT22;22480;50.546;12.292;2022-08-21T06:15:47;18.00;99.90
36458;DHT22;22480;50.546;12.292;2022-08-21T06:18:13;18.00;99.90
36458;DHT22;22480;50.546;12.292;2022-08-21T06:20:40;17.90;99.90
36458;DHT22;22480;50.546;12.292;2022-08-21T06:23:05;18.00;99.90
36458;DHT22;22480;50.546;12.292;2022-08-21T06:25:34;18.00;99.90
36458;DHT22;22480;50.546;12.292;2022-08-21T06:28:05;18.30;99.90
36458;DHT22;22480;50.546;12.292;2022-08-21T06:30:31;18.40;99.90
36458;DHT22;22480;50.546;12.292;2022-08-21T06:32:57;18.40;99.90
36458;DHT22;22480;50.546;12.292;2022-08-21T06:35:23;18.60;99.90
36458;DHT22;22480;50.546;12.292;2022-08-21T06:37:50;18.70;99.90
36458;DHT22;22480;50.546;12.292;2022-08-21T06:40:16;18.90;99.90
36458;DHT22;22480;50.546;12.292;2022-08-21T06:42:42;19.00;99.90
36458;DHT22;22480;50.546;12.292;2022-08-21T06:45:08;19.20;99.90
36458;DHT22;22480;50.546;12.292;2022-08-21T06:47:34;19.40;99.90
36458;DHT22;22480;50.546;12.292;2022-08-21T06:49:59;19.50;99.90
36458;DHT22;22480;50.546;12.292;2022-08-21T06:52:25;19.50;99.90
36458;DHT22;22480;50.546;12.292;2022-08-21T06:54:51;19.50;99.90
36458;DHT22;22480;50.546;12.292;2022-08-21T06:57:17;19.50;99.90
36458;DHT22;22480;50.546;12.292;2022-08-21T06:59:42;19.40;99.90
36458;DHT22;22480;50.546;12.292;2022-08-21T07:02:08;19.30;99.90
36458;DHT22;22480;50.546;12.292;2022-08-21T07:04:34;19.10;99.90
36458;DHT22;22480;50.546;12.292;2022-08-21T07:07:02;19.00;99.90
36458;DHT22;22480;50.546;12.292;2022-08-21T07:09:27;19.00;99.90
36458;DHT22;22480;50.546;12.292;2022-08-21T07:11:55;19.10;99.90
36458;DHT22;22480;50.546;12.292;2022-08-21T07:14:21;19.00;99.90
36458;DHT22;22480;50.546;12.292;2022-08-21T07:16:47;19.10;99.90
36458;DHT22;22480;50.546;12.292;2022-08-21T07:19:13;19.30;99.90
36458;DHT22;22480;50.546;12.292;2022-08-21T07:21:39;19.40;99.90
36458;DHT22;22480;50.546;12.292;2022-08-21T07:24:05;19.50;99.90
36458;DHT22;22480;50.546;12.292;2022-08-21T07:26:30;19.50;99.90
36458;DHT22;22480;50.546;12.292;2022-08-21T07:28:56;19.40;99.90
36458;DHT22;22480;50.546;12.292;2022-08-21T07:31:24;19.50;99.90
36458;DHT22;22480;50.546;12.292;2022-08-21T07:33:50;19.70;99.90
36458;DHT22;22480;50.546;12.292;2022-08-21T07:36:19;20.00;99.90
36458;DHT22;22480;50.546;12.292;2022-08-21T07:38:45;20.30;99.90
36458;DHT22;22480;50.546;12.292;2022-08-21T07:41:21;20.30;99.90
36458;DHT22;22480;50.546;12.292;2022-08-21T07:43:47;20.40;99.90
36458;DHT22;22480;50.546;12.292;2022-08-21T07:46:14;20.60;99.90
36458;DHT22;22480;50.546;12.292;2022-08-21T07:48:40;20.80;99.90
36458;DHT22;22480;50.546;12.292;2022-08-21T07:51:10;21.10;99.90
36458;DHT22;22480;50.546;12.292;2022-08-21T07:53:37;21.40;99.90
36458;DHT22;22480;50.546;12.292;2022-08-21T07:56:04;21.50;99.90
36458;DHT22;22480;50.546;12.292;2022-08-21T07:58:31;21.20;99.90
36458;DHT22;22480;50.546;12.292;2022-08-21T08:00:57;21.10;99.90
36458;DHT22;22480;50.546;12.292;2022-08-21T08:03:25;21.20;99.90
36458;DHT22;22480;50.546;12.292;2022-08-21T08:05:51;21.30;99.90
36458;DHT22;22480;50.546;12.292;2022-08-21T08:08:19;21.20;99.90
36458;DHT22;22480;50.546;12.292;2022-08-21T08:10:46;21.30;99.90
36458;DHT22;22480;50.546;12.292;2022-08-21T08:13:16;21.40;99.90
36458;DHT22;22480;50.546;12.292;2022-08-21T08:15:42;21.70;99.90
36458;DHT22;22480;50.546;12.292;2022-08-21T08:18:10;21.90;99.90
36458;DHT22;22480;50.546;12.292;2022-08-21T08:20:38;22.50;99.90
36458;DHT22;22480;50.546;12.292;2022-08-21T08:23:09;22.70;99.90
36458;DHT22;22480;50.546;12.292;2022-08-21T08:25:37;22.60;99.90
36458;DHT22;22480;50.546;12.292;2022-08-21T08:28:04;22.50;99.90
36458;DHT22;22480;50.546;12.292;2022-08-21T08:30:30;22.20;99.90
36458;DHT22;22480;50.546;12.292;2022-08-21T08:32:56;22.40;99.90
36458;DHT22;22480;50.546;12.292;2022-08-21T08:35:25;22.70;99.90
36458;DHT22;22480;50.546;12.292;2022-08-21T08:37:54;22.90;99.90
36458;DHT22;22480;50.546;12.292;2022-08-21T08:40:41;23.30;99.90
36458;DHT22;22480;50.546;12.292;2022-08-21T08:43:10;23.90;99.90
36458;DHT22;22480;50.546;12.292;2022-08-21T08:45:38;23.90;99.90
36458;DHT22;22480;50.546;12.292;2022-08-21T08:48:08;24.10;99.90
36458;DHT22;22480;50.546;12.292;2022-08-21T08:50:40;23.90;99.90
36458;DHT22;22480;50.546;12.292;2022-08-21T08:53:12;23.90;99.90
36458;DHT22;22480;50.546;12.292;2022-08-21T08:55:41;24.40;99.90
36458;DHT22;22480;50.546;12.292;2022-08-21T08:58:14;24.90;99.90
36458;DHT22;22480;50.546;12.292;2022-08-21T09:00:44;24.90;99.90
36458;DHT22;22480;50.546;12.292;2022-08-21T09:03:12;25.10;99.90
36458;DHT22;22480;50.546;12.292;2022-08-21T09:06:42;25.10;99.90
36458;DHT22;22480;50.546;12.292;2022-08-21T09:08:50;24.90;99.60
36458;DHT22;22480;50.546;12.292;2022-08-21T09:17:19;25.00;99.90
36458;DHT22;22480;50.546;12.292;2022-08-21T09:20:23;25.50;97.60
36458;DHT22;22480;50.546;12.292;2022-08-21T09:25:32;25.60;97.30
36458;DHT22;22480;50.546;12.292;2022-08-21T09:27:58;25.70;96.20
36458;DHT22;22480;50.546;12.292;2022-08-21T09:30:28;25.90;95.10
36458;DHT22;22480;50.546;12.292;2022-08-21T09:32:55;26.50;97.50
36458;DHT22;22480;50.546;12.292;2022-08-21T09:35:22;26.80;95.40
36458;DHT22;22480;50.546;12.292;2022-08-21T09:37:59;27.60;94.10
36458;DHT22;22480;50.546;12.292;2022-08-21T09:40:32;28.20;91.70
36458;DHT22;22480;50.546;12.292;2022-08-21T09:43:01;27.70;90.20
36458;DHT22;22480;50.546;12.292;2022-08-21T09:45:28;27.20;90.70
36458;DHT22;22480;50.546;12.292;2022-08-21T09:47:54;27.00;91.50
36458;DHT22;22480;50.546;12.292;2022-08-21T09:50:26;26.70;91.60
36458;DHT22;22480;50.546;12.292;2022-08-21T09:52:55;26.60;91.00
36458;DHT22;22480;50.546;12.292;2022-08-21T09:55:39;26.20;90.60
36458;DHT22;22480;50.546;12.292;2022-08-21T09:58:36;26.40;90.40
36458;DHT22;22480;50.546;12.292;2022-08-21T10:01:05;26.70;87.60
36458;DHT22;22480;50.546;12.292;2022-08-21T10:03:31;26.20;90.40
36458;DHT22;22480;50.546;12.292;2022-08-21T10:06:02;26.20;91.30
36458;DHT22;22480;50.546;12.292;2022-08-21T10:08:33;25.80;92.00
36458;DHT22;22480;50.546;12.292;2022-08-21T10:11:09;25.50;92.60
36458;DHT22;22480;50.546;12.292;2022-08-21T10:16:25;24.90;94.10
36458;DHT22;22480;50.546;12.292;2022-08-21T10:19:12;25.30;93.50
36458;DHT22;22480;50.546;12.292;2022-08-21T10:22:00;26.20;91.80
36458;DHT22;22480;50.546;12.292;2022-08-21T10:24:38;27.40;91.10
36458;DHT22;22480;50.546;12.292;2022-08-21T10:30:02;27.90;90.30
36458;DHT22;22480;50.546;12.292;2022-08-21T10:37:52;26.60;87.70
36458;DHT22;22480;50.546;12.292;2022-08-21T10:40:47;26.00;90.00
36458;DHT22;22480;50.546;12.292;2022-08-21T10:43:42;24.70;90.40
36458;DHT22;22480;50.546;12.292;2022-08-21T10:55:10;23.50;94.60
36458;DHT22;22480;50.546;12.292;2022-08-21T10:57:50;24.90;92.10
36458;DHT22;22480;50.546;12.292;2022-08-21T11:00:20;26.10;92.70
36458;DHT22;22480;50.546;12.292;2022-08-21T11:02:55;26.90;90.80
36458;DHT22;22480;50.546;12.292;2022-08-21T11:05:28;27.60;86.50
36458;DHT22;22480;50.546;12.292;2022-08-21T11:08:10;28.50;88.70
36458;DHT22;22480;50.546;12.292;2022-08-21T11:10:44;29.10;81.70
36458;DHT22;22480;50.546;12.292;2022-08-21T11:13:19;29.80;79.30
36458;DHT22;22480;50.546;12.292;2022-08-21T11:16:02;29.90;79.80
36458;DHT22;22480;50.546;12.292;2022-08-21T11:18:33;30.30;74.10
36458;DHT22;22480;50.546;12.292;2022-08-21T11:21:55;30.90;70.30
36458;DHT22;22480;50.546;12.292;2022-08-21T11:24:21;31.00;67.50
36458;DHT22;22480;50.546;12.292;2022-08-21T11:29:29;29.00;69.40
36458;DHT22;22480;50.546;12.292;2022-08-21T11:38:10;28.60;70.50
36458;DHT22;22480;50.546;12.292;2022-08-21T11:40:58;29.60;74.30
36458;DHT22;22480;50.546;12.292;2022-08-21T11:46:25;30.90;64.00
36458;DHT22;22480;50.546;12.292;2022-08-21T11:52:10;32.30;59.60
36458;DHT22;22480;50.546;12.292;2022-08-21T11:54:57;32.50;64.10
36458;DHT22;22480;50.546;12.292;2022-08-21T12:00:02;32.90;57.40
36458;DHT22;22480;50.546;12.292;2022-08-21T12:02:59;32.10;57.60
36458;DHT22;22480;50.546;12.292;2022-08-21T12:05:34;30.50;62.30
36458;DHT22;22480;50.546;12.292;2022-08-21T12:10:40;29.30;64.30
36458;DHT22;22480;50.546;12.292;2022-08-21T12:13:21;29.80;64.50
36458;DHT22;22480;50.546;12.292;2022-08-21T12:15:47;29.80;64.20
36458;DHT22;22480;50.546;12.292;2022-08-21T12:18:29;30.20;62.60
36458;DHT22;22480;50.546;12.292;2022-08-21T12:21:19;31.00;61.30
36458;DHT22;22480;50.546;12.292;2022-08-21T12:26:48;29.60;61.70
36458;DHT22;22480;50.546;12.292;2022-08-21T12:29:21;28.40;64.30
36458;DHT22;22480;50.546;12.292;2022-08-21T12:32:02;27.90;68.10
36458;DHT22;22480;50.546;12.292;2022-08-21T12:34:40;28.10;69.00
36458;DHT22;22480;50.546;12.292;2022-08-21T12:37:16;28.40;70.70
36458;DHT22;22480;50.546;12.292;2022-08-21T12:39:48;28.80;65.50
36458;DHT22;22480;50.546;12.292;2022-08-21T12:44:46;28.40;63.30
36458;DHT22;22480;50.546;12.292;2022-08-21T12:47:47;28.90;65.10
36458;DHT22;22480;50.546;12.292;2022-08-21T12:50:21;30.30;61.40
36458;DHT22;22480;50.546;12.292;2022-08-21T12:55:32;33.10;60.60
36458;DHT22;22480;50.546;12.292;2022-08-21T12:57:58;32.60;56.60
36458;DHT22;22480;50.546;12.292;2022-08-21T13:00:27;31.90;60.30
36458;DHT22;22480;50.546;12.292;2022-08-21T13:02:53;30.90;59.00
36458;DHT22;22480;50.546;12.292;2022-08-21T13:05:33;29.00;62.50
36458;DHT22;22480;50.546;12.292;2022-08-21T13:08:04;27.70;65.70
36458;DHT22;22480;50.546;12.292;2022-08-21T13:10:34;26.70;67.10
36458;DHT22;22480;50.546;12.292;2022-08-21T13:13:06;26.30;66.80
36458;DHT22;22480;50.546;12.292;2022-08-21T13:15:36;26.60;71.30
36458;DHT22;22480;50.546;12.292;2022-08-21T13:18:05;27.30;68.60
36458;DHT22;22480;50.546;12.292;2022-08-21T13:20:38;27.20;67.50
36458;DHT22;22480;50.546;12.292;2022-08-21T13:23:38;27.00;69.20
36458;DHT22;22480;50.546;12.292;2022-08-21T13:28:39;26.60;69.10
36458;DHT22;22480;50.546;12.292;2022-08-21T13:31:07;26.40;70.50
36458;DHT22;22480;50.546;12.292;2022-08-21T13:33:36;26.50;70.50
36458;DHT22;22480;50.546;12.292;2022-08-21T13:36:11;26.30;71.40
36458;DHT22;22480;50.546;12.292;2022-08-21T13:38:41;26.50;72.60
36458;DHT22;22480;50.546;12.292;2022-08-21T13:43:57;26.60;67.00
36458;DHT22;22480;50.546;12.292;2022-08-21T13:46:32;26.40;72.70
36458;DHT22;22480;50.546;12.292;2022-08-21T13:49:00;26.30;71.50
36458;DHT22;22480;50.546;12.292;2022-08-21T13:51:26;26.40;68.80
36458;DHT22;22480;50.546;12.292;2022-08-21T13:53:53;26.40;72.00
36458;DHT22;22480;50.546;12.292;2022-08-21T13:56:27;26.50;70.20
36458;DHT22;22480;50.546;12.292;2022-08-21T13:58:57;26.80;69.70
36458;DHT22;22480;50.546;12.292;2022-08-21T14:01:37;27.30;66.90
36458;DHT22;22480;50.546;12.292;2022-08-21T14:04:29;27.90;65.60
36458;DHT22;22480;50.546;12.292;2022-08-21T14:06:56;29.30;66.10
36458;DHT22;22480;50.546;12.292;2022-08-21T14:09:33;30.20;61.50
36458;DHT22;22480;50.546;12.292;2022-08-21T14:12:03;30.90;60.80
36458;DHT22;22480;50.546;12.292;2022-08-21T14:14:39;31.10;59.40
36458;DHT22;22480;50.546;12.292;2022-08-21T14:17:25;31.70;58.60
36458;DHT22;22480;50.546;12.292;2022-08-21T14:19:53;32.10;57.60
36458;DHT22;22480;50.546;12.292;2022-08-21T14:22:45;32.40;56.50
36458;DHT22;22480;50.546;12.292;2022-08-21T14:30:33;32.80;55.40
36458;DHT22;22480;50.546;12.292;2022-08-21T14:33:00;32.60;55.60
36458;DHT22;22480;50.546;12.292;2022-08-21T14:35:26;31.80;59.80
36458;DHT22;22480;50.546;12.292;2022-08-21T14:37:52;31.60;55.80
36458;DHT22;22480;50.546;12.292;2022-08-21T14:40:19;31.90;58.80
36458;DHT22;22480;50.546;12.292;2022-08-21T14:42:45;32.70;57.20
36458;DHT22;22480;50.546;12.292;2022-08-21T14:45:19;32.90;56.40
36458;DHT22;22480;50.546;12.292;2022-08-21T14:47:49;32.20;55.30
36458;DHT22;22480;50.546;12.292;2022-08-21T14:50:18;30.90;57.80
36458;DHT22;22480;50.546;12.292;2022-08-21T14:52:48;30.30;59.30
36458;DHT22;22480;50.546;12.292;2022-08-21T14:55:17;29.40;61.00
36458;DHT22;22480;50.546;12.292;2022-08-21T14:57:46;29.10;59.90
36458;DHT22;22480;50.546;12.292;2022-08-21T15:00:19;29.40;59.70
36458;DHT22;22480;50.546;12.292;2022-08-21T15:02:46;29.60;59.10
36458;DHT22;22480;50.546;12.292;2022-08-21T15:05:14;29.90;60.50
36458;DHT22;22480;50.546;12.292;2022-08-21T15:07:40;30.60;59.10
36458;DHT22;22480;50.546;12.292;2022-08-21T15:10:08;30.70;59.60
36458;DHT22;22480;50.546;12.292;2022-08-21T15:12:34;30.90;58.00
36458;DHT22;22480;50.546;12.292;2022-08-21T15:15:05;30.40;58.10
36458;DHT22;22480;50.546;12.292;2022-08-21T15:17:32;29.90;58.90
36458;DHT22;22480;50.546;12.292;2022-08-21T15:19:58;30.20;58.80
36458;DHT22;22480;50.546;12.292;2022-08-21T15:22:28;30.60;59.90
36458;DHT22;22480;50.546;12.292;2022-08-21T15:24:59;30.70;59.30
36458;DHT22;22480;50.546;12.292;2022-08-21T15:27:29;31.20;59.70
36458;DHT22;22480;50.546;12.292;2022-08-21T15:29:57;31.20;58.10
36458;DHT22;22480;50.546;12.292;2022-08-21T15:32:27;31.60;60.40
36458;DHT22;22480;50.546;12.292;2022-08-21T15:34:59;31.90;58.50
36458;DHT22;22480;50.546;12.292;2022-08-21T15:37:25;31.70;55.70
36458;DHT22;22480;50.546;12.292;2022-08-21T15:39:53;30.80;56.80
36458;DHT22;22480;50.546;12.292;2022-08-21T15:42:22;30.30;59.20
36458;DHT22;22480;50.546;12.292;2022-08-21T15:44:53;30.50;60.00
36458;DHT22;22480;50.546;12.292;2022-08-21T15:47:22;31.00;59.70
36458;DHT22;22480;50.546;12.292;2022-08-21T15:49:50;31.60;57.40
36458;DHT22;22480;50.546;12.292;2022-08-21T15:52:18;31.20;56.90
36458;DHT22;22480;50.546;12.292;2022-08-21T15:54:46;30.90;56.90
36458;DHT22;22480;50.546;12.292;2022-08-21T15:57:16;31.00;56.80
36458;DHT22;22480;50.546;12.292;2022-08-21T15:59:53;31.60;57.10
36458;DHT22;22480;50.546;12.292;2022-08-21T16:02:23;31.90;58.60
36458;DHT22;22480;50.546;12.292;2022-08-21T16:04:52;31.00;57.50
36458;DHT22;22480;50.546;12.292;2022-08-21T16:07:18;30.40;58.10
36458;DHT22;22480;50.546;12.292;2022-08-21T16:09:44;30.30;58.20
36458;DHT22;22480;50.546;12.292;2022-08-21T16:12:17;30.30;60.00
36458;DHT22;22480;50.546;12.292;2022-08-21T16:14:45;30.30;60.00
36458;DHT22;22480;50.546;12.292;2022-08-21T16:17:11;30.30;58.80
36458;DHT22;22480;50.546;12.292;2022-08-21T16:19:39;29.80;58.50
36458;DHT22;22480;50.546;12.292;2022-08-21T16:22:05;29.20;60.00
36458;DHT22;22480;50.546;12.292;2022-08-21T16:24:33;29.30;60.40
36458;DHT22;22480;50.546;12.292;2022-08-21T16:27:01;29.20;59.60
36458;DHT22;22480;50.546;12.292;2022-08-21T16:29:33;28.70;59.70
36458;DHT22;22480;50.546;12.292;2022-08-21T16:31:59;28.40;61.20
36458;DHT22;22480;50.546;12.292;2022-08-21T16:34:28;28.30;62.20
36458;DHT22;22480;50.546;12.292;2022-08-21T16:36:54;28.40;63.20
36458;DHT22;22480;50.546;12.292;2022-08-21T16:39:22;28.30;63.30